KHRI

Hermiston Municipal Airport

Hermiston, Oregon, USA
METAR KHRI 181553Z AUTO VRB03KT 10SM CLR 08/02 A3002 RMK AO2 SLP167 T00830017
Observed Flight Rules
Dec-18 @ 15:53 UTC (53 minutes ago) Visual Flight Rules
Wind Visibility Clouds
Variable at 3 knots 10 miles
  • Clear skies
Temperatures Readings
Current 8°C / 46°F
Dewpoint 2°C / 36°F
Humidity 66%
Altimeter 30.02" Hg
Pressure 1016.7 hPa
Elevation 195
METAR KHRI 181553Z AUTO VRB03KT 10SM CLR 08/02 A3002 RMK AO2 SLP167 T00830017
Observed Flight Rules
Dec-18 @ 15:53 UTC
(53 minutes ago)
VFR
Wind Visibility
Variable at 3 knots 10 miles
Clouds
  • Clear skies
Temperature Dewpoint
8°C / 46°F 2°C / 36°F
Humidity Altimeter Pressure
66% 30.02" Hg 1016.7 hPa